createdAt,value
2022-08-26T00:18:21.776Z,19.50
2022-08-26T00:28:44.230Z,23.05
2022-08-26T00:34:48.241Z,14.52
2022-08-26T00:37:18.941Z,16.38
2022-08-26T00:39:48.041Z,16.40
2022-08-26T00:43:14.970Z,16.70
2022-08-26T00:45:47.350Z,15.27
2022-08-26T00:48:19.395Z,17.23
2022-08-26T00:50:52.030Z,17.20
2022-08-26T00:54:20.993Z,14.00
2022-08-26T00:58:16.560Z,18.10
2022-08-26T01:00:49.044Z,19.70
2022-08-26T01:04:45.095Z,14.88
2022-08-26T01:13:11.338Z,12.90
2022-08-26T01:28:50.606Z,13.43
2022-08-26T01:31:25.348Z,14.48
2022-08-26T01:39:25.075Z,13.57
2022-08-26T01:45:43.005Z,16.05
2022-08-26T01:52:58.222Z,13.40
2022-08-26T01:55:51.361Z,18.20
2022-08-26T01:58:24.999Z,17.70
2022-08-26T02:00:55.783Z,15.23
2022-08-26T02:04:27.789Z,16.20
2022-08-26T02:06:58.266Z,15.70
2022-08-26T02:09:28.455Z,18.25
2022-08-26T02:13:24.145Z,13.98
2022-08-26T02:15:55.962Z,14.80
2022-08-26T02:18:26.087Z,16.73
2022-08-26T02:20:56.351Z,15.30
2022-08-26T02:28:08.663Z,14.07
2022-08-26T02:30:40.415Z,14.85
2022-08-26T02:34:33.342Z,18.73
2022-08-26T02:45:47.978Z,15.93
2022-08-26T02:48:20.063Z,16.25
2022-08-26T02:50:49.652Z,16.15
2022-08-26T02:53:31.686Z,13.13
2022-08-26T02:56:01.445Z,16.33
2022-08-26T02:58:30.233Z,15.00
2022-08-26T03:01:01.502Z,13.35
2022-08-26T03:04:09.829Z,14.52
2022-08-26T03:06:39.406Z,13.32
2022-08-26T03:09:11.141Z,12.95
2022-08-26T03:17:01.222Z,15.48
2022-08-26T03:19:32.361Z,11.77
2022-08-26T03:27:33.995Z,14.02
2022-08-26T03:30:20.674Z,15.82
2022-08-26T03:34:05.188Z,12.95
2022-08-26T03:36:35.649Z,13.23
2022-08-26T03:39:05.628Z,14.52
2022-08-26T03:42:32.620Z,17.33
2022-08-26T03:45:02.247Z,12.80
2022-08-26T03:47:32.171Z,13.43
2022-08-26T03:54:44.351Z,16.08
2022-08-26T03:57:16.770Z,14.95
2022-08-26T03:59:46.085Z,10.95
2022-08-26T04:06:40.380Z,13.65
2022-08-26T04:09:12.657Z,13.57
2022-08-26T04:12:22.594Z,14.95
2022-08-26T04:14:54.996Z,15.07
2022-08-26T04:17:26.840Z,12.43
2022-08-26T04:19:55.920Z,15.68
2022-08-26T04:31:26.590Z,14.95
2022-08-26T04:34:00.956Z,16.88
2022-08-26T04:36:29.937Z,15.40
2022-08-26T04:47:57.913Z,12.48
2022-08-26T04:51:27.968Z,13.10
2022-08-26T04:54:29.811Z,18.10
2022-08-26T04:56:59.122Z,11.35
2022-08-26T04:59:27.992Z,11.63
2022-08-26T05:06:06.319Z,13.15
2022-08-26T05:08:35.205Z,14.43
2022-08-26T05:14:32.121Z,17.13
2022-08-26T05:29:44.294Z,12.52
2022-08-26T05:36:47.579Z,13.90
2022-08-26T05:39:16.900Z,18.17
2022-08-26T05:42:00.123Z,11.93
2022-08-26T05:44:29.068Z,12.48
2022-08-26T05:47:07.637Z,12.82
2022-08-26T05:49:37.787Z,14.27
2022-08-26T05:52:45.417Z,10.98
2022-08-26T05:55:22.652Z,12.32
2022-08-26T05:57:51.562Z,12.55
2022-08-26T06:00:21.387Z,14.85
2022-08-26T06:07:14.343Z,11.18
2022-08-26T06:09:43.658Z,13.43
2022-08-26T06:12:13.202Z,13.27
2022-08-26T06:14:44.096Z,19.52
2022-08-26T06:19:42.098Z,13.63
2022-08-26T06:25:13.786Z,12.65
2022-08-26T06:27:42.626Z,13.95
2022-08-26T06:30:13.588Z,13.60
2022-08-26T06:32:42.739Z,14.30
2022-08-26T06:35:12.455Z,14.57
2022-08-26T06:37:43.068Z,13.77
2022-08-26T06:40:14.147Z,10.77
2022-08-26T06:42:43.369Z,13.43
2022-08-26T06:45:12.904Z,13.15
2022-08-26T06:47:42.073Z,11.50
2022-08-26T06:54:25.008Z,13.13
2022-08-26T06:59:26.953Z,9.07
2022-08-26T07:01:56.663Z,10.88
2022-08-26T07:08:39.989Z,12.43
2022-08-26T07:11:10.763Z,10.27
2022-08-26T07:13:41.826Z,11.60
2022-08-26T07:16:13.374Z,10.68
2022-08-26T07:18:44.788Z,13.18
2022-08-26T07:21:42.839Z,11.50
2022-08-26T07:24:12.508Z,10.50
2022-08-26T07:26:43.065Z,11.45
2022-08-26T07:29:15.002Z,9.18
2022-08-26T07:31:45.454Z,11.30
2022-08-26T07:34:59.923Z,14.07
2022-08-26T07:37:28.829Z,10.73
2022-08-26T07:40:16.951Z,11.73
2022-08-26T07:42:50.643Z,10.57
2022-08-26T07:45:21.314Z,13.73
2022-08-26T07:47:51.368Z,12.85
2022-08-26T07:50:50.150Z,11.70
2022-08-26T07:53:52.754Z,10.15
2022-08-26T07:56:23.442Z,7.43
2022-08-26T07:58:53.026Z,8.45
2022-08-26T08:01:24.893Z,8.13
2022-08-26T08:04:28.710Z,9.80
2022-08-26T08:06:57.804Z,13.57
2022-08-26T08:09:28.554Z,9.77
2022-08-26T08:13:11.463Z,9.50
2022-08-26T08:15:41.731Z,9.68
2022-08-26T08:18:15.678Z,11.05
2022-08-26T08:21:04.791Z,9.65
2022-08-26T08:27:50.138Z,9.60
2022-08-26T08:32:50.453Z,9.35
2022-08-26T08:35:22.701Z,8.85
2022-08-26T08:37:54.641Z,8.02
2022-08-26T08:40:26.456Z,9.38
2022-08-26T08:42:58.671Z,7.80
2022-08-26T08:45:36.649Z,6.32
2022-08-26T08:48:08.513Z,8.18
2022-08-26T08:50:46.025Z,8.15
2022-08-26T08:53:16.688Z,10.07
2022-08-26T08:55:51.243Z,10.68
2022-08-26T08:58:23.460Z,7.18
2022-08-26T09:00:56.347Z,9.20
2022-08-26T09:03:32.032Z,12.88
2022-08-26T09:06:04.002Z,9.13
2022-08-26T09:08:37.117Z,16.30
2022-08-26T09:11:06.887Z,12.98
2022-08-26T09:13:36.435Z,10.80
2022-08-26T09:16:08.555Z,12.18
2022-08-26T09:18:49.173Z,10.23
2022-08-26T09:21:23.521Z,11.02
2022-08-26T09:23:56.918Z,11.65
2022-08-26T09:26:30.583Z,13.65
2022-08-26T09:29:01.806Z,10.27
2022-08-26T09:31:31.947Z,9.38
2022-08-26T09:34:07.818Z,9.77
2022-08-26T09:36:41.374Z,9.43
2022-08-26T09:39:26.042Z,10.07
2022-08-26T09:42:07.899Z,11.60
2022-08-26T09:44:53.825Z,10.15
2022-08-26T09:47:25.261Z,9.40
2022-08-26T09:50:00.611Z,11.65
2022-08-26T09:52:33.063Z,11.13
2022-08-26T09:55:08.032Z,16.95
2022-08-26T09:57:38.305Z,13.75
2022-08-26T10:00:24.009Z,11.60
2022-08-26T10:02:59.250Z,13.82
2022-08-26T10:05:33.352Z,13.52
2022-08-26T10:08:16.861Z,12.10
2022-08-26T10:10:46.740Z,9.35
2022-08-26T10:13:31.435Z,12.07
2022-08-26T10:16:03.670Z,8.88
2022-08-26T10:18:35.852Z,10.10
2022-08-26T10:21:07.319Z,9.18
2022-08-26T10:23:42.652Z,7.75
2022-08-26T10:29:48.339Z,9.75
2022-08-26T10:37:14.280Z,7.65
2022-08-26T10:39:49.037Z,8.70
2022-08-26T10:42:22.277Z,9.85
2022-08-26T10:44:53.576Z,9.02
2022-08-26T10:47:31.773Z,9.52
2022-08-26T10:50:03.350Z,9.43
2022-08-26T10:56:45.556Z,9.07
2022-08-26T10:59:19.369Z,8.52
2022-08-26T11:01:52.782Z,9.75
2022-08-26T11:04:25.676Z,8.32
2022-08-26T11:07:10.167Z,9.85
2022-08-26T11:09:46.522Z,7.05
2022-08-26T11:12:30.761Z,11.95
2022-08-26T11:15:05.189Z,9.80
2022-08-26T11:17:53.329Z,11.75
2022-08-26T11:20:33.851Z,12.48
2022-08-26T11:23:26.775Z,8.77
2022-08-26T11:26:35.870Z,12.25
2022-08-26T11:29:13.874Z,9.70
2022-08-26T11:31:58.720Z,8.38
2022-08-26T11:34:53.365Z,10.45
2022-08-26T11:37:22.694Z,9.43
2022-08-26T11:39:57.003Z,9.57
2022-08-26T11:42:33.713Z,12.75
2022-08-26T11:45:05.542Z,10.13
2022-08-26T11:47:36.566Z,9.32
2022-08-26T11:50:09.608Z,10.10
2022-08-26T11:52:39.543Z,9.50
2022-08-26T11:55:11.361Z,10.25
2022-08-26T11:57:45.125Z,9.43
2022-08-26T12:00:22.566Z,9.98
2022-08-26T12:02:55.813Z,10.10
2022-08-26T12:05:26.845Z,9.25
2022-08-26T12:08:04.126Z,7.72
2022-08-26T12:10:36.188Z,10.50
2022-08-26T12:13:10.632Z,9.00
2022-08-26T12:15:39.574Z,9.40
2022-08-26T12:19:06.645Z,7.30
2022-08-26T12:21:38.633Z,11.13
2022-08-26T12:24:07.921Z,8.75
2022-08-26T12:26:39.612Z,9.10
2022-08-26T12:29:26.734Z,11.60
2022-08-26T12:32:12.679Z,8.37
2022-08-26T12:34:44.969Z,7.55
2022-08-26T12:37:16.865Z,9.85
2022-08-26T12:48:27.408Z,7.47
2022-08-26T12:59:48.208Z,9.43
2022-08-26T13:07:16.161Z,6.97
2022-08-26T13:09:47.782Z,10.73
2022-08-26T13:12:26.702Z,7.60
2022-08-26T13:14:58.896Z,8.38
2022-08-26T13:17:28.411Z,7.63
2022-08-26T13:20:23.478Z,10.25
2022-08-26T13:27:37.941Z,12.02
2022-08-26T13:30:26.447Z,9.02
2022-08-26T13:33:37.575Z,7.72
2022-08-26T13:36:45.151Z,9.75
2022-08-26T13:39:42.670Z,11.63
2022-08-26T13:46:43.109Z,9.15
2022-08-26T13:49:12.943Z,11.48
2022-08-26T13:51:42.747Z,8.55
2022-08-26T13:55:06.562Z,10.98
2022-08-26T13:57:35.657Z,10.45
2022-08-26T14:00:05.130Z,7.97
2022-08-26T14:02:39.279Z,8.40
2022-08-26T14:05:09.904Z,8.27
2022-08-26T14:07:38.880Z,7.20
2022-08-26T14:10:09.431Z,11.35
2022-08-26T14:12:40.041Z,6.18
2022-08-26T14:15:10.097Z,8.00
2022-08-26T14:17:41.375Z,11.40
2022-08-26T14:20:13.542Z,10.43
2022-08-26T14:23:03.406Z,6.13
2022-08-26T14:25:34.948Z,5.90
2022-08-26T14:28:04.062Z,7.20
2022-08-26T14:30:33.446Z,6.78
2022-08-26T14:33:03.692Z,6.65
2022-08-26T14:35:32.758Z,10.63
2022-08-26T14:38:01.856Z,6.90
2022-08-26T14:40:34.024Z,7.78
2022-08-26T14:43:07.735Z,7.05
2022-08-26T14:48:14.374Z,8.05
2022-08-26T14:50:43.154Z,7.47
2022-08-26T14:53:32.142Z,8.98
2022-08-26T14:56:01.030Z,5.38
2022-08-26T14:58:30.978Z,8.18
2022-08-26T15:01:04.416Z,4.93
2022-08-26T15:03:34.896Z,5.68
2022-08-26T15:06:03.708Z,5.60
2022-08-26T15:08:36.751Z,5.75
2022-08-26T15:11:05.905Z,5.85
2022-08-26T15:13:34.706Z,9.68
2022-08-26T15:16:03.968Z,8.05
2022-08-26T15:18:34.448Z,7.35
2022-08-26T15:21:05.596Z,6.97
2022-08-26T15:23:34.774Z,9.88
2022-08-26T15:26:03.896Z,7.63
2022-08-26T15:28:33.132Z,5.47
2022-08-26T15:31:02.268Z,12.30
2022-08-26T15:33:31.841Z,6.13
2022-08-26T15:36:02.956Z,7.03
2022-08-26T15:38:32.316Z,7.15
2022-08-26T15:41:03.208Z,6.60
2022-08-26T15:43:32.850Z,6.20
2022-08-26T15:46:02.048Z,6.50
2022-08-26T15:48:31.542Z,5.90
2022-08-26T15:51:03.172Z,5.47
2022-08-26T15:53:34.028Z,5.53
2022-08-26T15:56:03.701Z,4.43
2022-08-26T15:58:32.722Z,7.80
2022-08-26T16:01:01.573Z,6.20
2022-08-26T16:03:30.531Z,7.47
2022-08-26T16:05:59.557Z,5.75
2022-08-26T16:08:30.132Z,8.18
2022-08-26T16:11:06.201Z,10.15
2022-08-26T16:13:40.114Z,8.40
2022-08-26T16:16:10.409Z,8.73
2022-08-26T16:18:40.869Z,5.07
2022-08-26T16:21:12.593Z,3.90
2022-08-26T16:23:45.251Z,6.90
2022-08-26T16:26:15.868Z,8.57
2022-08-26T16:28:44.975Z,4.80
2022-08-26T16:31:14.335Z,5.40
2022-08-26T16:33:43.426Z,9.80
2022-08-26T16:36:13.312Z,7.65
2022-08-26T16:38:43.293Z,8.98
2022-08-26T16:41:14.457Z,6.50
2022-08-26T16:43:43.468Z,7.93
2022-08-26T16:46:14.327Z,10.05
2022-08-26T16:48:43.621Z,7.15
2022-08-26T16:51:13.637Z,7.07
2022-08-26T16:53:42.862Z,6.63
2022-08-26T16:56:15.795Z,6.20
2022-08-26T16:58:45.319Z,8.10
2022-08-26T17:01:14.890Z,10.48
2022-08-26T17:03:44.033Z,7.28
2022-08-26T17:06:13.443Z,5.97
2022-08-26T17:08:43.306Z,6.53
2022-08-26T17:11:12.756Z,7.88
2022-08-26T17:13:43.553Z,9.75
2022-08-26T17:16:13.376Z,9.48
2022-08-26T17:18:43.029Z,10.25
2022-08-26T17:21:13.174Z,9.50
2022-08-26T17:23:44.894Z,16.88
2022-08-26T17:26:14.578Z,15.32
2022-08-26T17:28:45.026Z,11.73
2022-08-26T17:31:15.447Z,9.52
2022-08-26T17:33:47.731Z,7.40
2022-08-26T17:36:20.049Z,8.20
2022-08-26T17:38:49.141Z,6.65
2022-08-26T17:41:21.759Z,9.60
2022-08-26T17:43:52.537Z,8.65
2022-08-26T17:46:21.943Z,8.60
2022-08-26T17:48:51.225Z,12.32
2022-08-26T17:51:20.661Z,7.13
2022-08-26T17:53:50.546Z,10.95
2022-08-26T17:56:24.052Z,11.65
2022-08-26T17:58:56.957Z,18.90
2022-08-26T18:01:27.998Z,11.95
2022-08-26T18:04:00.433Z,13.25
2022-08-26T18:06:33.309Z,14.43
2022-08-26T18:09:02.900Z,16.27
2022-08-26T18:11:32.290Z,15.52
2022-08-26T18:14:03.188Z,17.33
2022-08-26T18:16:38.310Z,19.90
2022-08-26T18:19:08.154Z,20.73
2022-08-26T18:21:37.722Z,22.67
2022-08-26T18:24:11.044Z,22.98
2022-08-26T18:26:48.202Z,22.45
2022-08-26T18:29:19.913Z,20.35
2022-08-26T18:31:49.868Z,19.35
2022-08-26T18:34:19.673Z,18.10
2022-08-26T18:36:49.727Z,18.75
2022-08-26T18:39:22.168Z,16.15
2022-08-26T18:41:53.716Z,15.00
2022-08-26T18:44:24.905Z,19.27
2022-08-26T18:46:53.987Z,19.77
2022-08-26T18:49:23.740Z,17.27
2022-08-26T18:51:52.943Z,18.08
2022-08-26T18:54:22.798Z,13.98
2022-08-26T18:56:51.993Z,14.88
2022-08-26T18:59:28.460Z,16.15
2022-08-26T19:02:01.797Z,18.08
2022-08-26T19:04:31.297Z,12.50
2022-08-26T19:07:00.414Z,15.05
2022-08-26T19:09:31.565Z,11.52
2022-08-26T19:12:01.682Z,14.25
2022-08-26T19:14:31.466Z,16.23
2022-08-26T19:17:02.787Z,13.95
2022-08-26T19:19:31.967Z,13.77
2022-08-26T19:22:00.907Z,10.13
2022-08-26T19:24:30.015Z,14.65
2022-08-26T19:27:02.055Z,10.43
2022-08-26T19:29:32.243Z,11.23
2022-08-26T19:32:03.247Z,11.18
2022-08-26T19:34:32.658Z,10.05
2022-08-26T19:37:01.408Z,12.25
2022-08-26T19:39:30.211Z,10.15
2022-08-26T19:42:00.521Z,12.43
2022-08-26T19:44:46.779Z,13.70
2022-08-26T19:47:17.535Z,13.05
2022-08-26T19:49:46.554Z,10.15
2022-08-26T19:57:13.716Z,14.73
2022-08-26T19:59:43.611Z,10.45
2022-08-26T20:02:13.574Z,10.32
2022-08-26T20:04:45.024Z,9.45
2022-08-26T20:07:18.135Z,10.13
2022-08-26T20:09:49.080Z,12.93
2022-08-26T20:12:18.850Z,9.02
2022-08-26T20:14:47.898Z,11.43
2022-08-26T20:17:17.427Z,10.35
2022-08-26T20:20:05.316Z,10.35
2022-08-26T20:22:39.100Z,11.52
2022-08-26T20:25:08.834Z,14.27
2022-08-26T20:27:39.070Z,14.75
2022-08-26T20:30:10.398Z,11.05
2022-08-26T20:32:40.192Z,9.68
2022-08-26T20:35:13.850Z,9.88
2022-08-26T20:37:43.348Z,9.95
2022-08-26T20:40:14.700Z,11.55
2022-08-26T20:42:43.865Z,11.25
2022-08-26T20:45:13.459Z,11.18
2022-08-26T20:47:42.976Z,10.88
2022-08-26T20:50:13.427Z,10.02
2022-08-26T20:52:42.608Z,10.05
2022-08-26T20:55:12.094Z,10.52
2022-08-26T20:57:43.568Z,9.85
2022-08-26T21:00:16.204Z,12.05
2022-08-26T21:02:46.850Z,14.50
2022-08-26T21:05:17.442Z,10.52
2022-08-26T21:07:46.667Z,11.40
2022-08-26T21:10:15.585Z,12.45
2022-08-26T21:12:45.003Z,15.55
2022-08-26T21:15:14.048Z,16.83
2022-08-26T21:20:11.891Z,14.77
2022-08-26T21:22:42.463Z,10.18
2022-08-26T21:25:11.874Z,10.00
2022-08-26T21:27:40.920Z,10.88
2022-08-26T21:32:39.657Z,12.68
2022-08-26T21:35:09.959Z,9.48
2022-08-26T21:37:39.545Z,11.10
2022-08-26T21:40:11.465Z,10.73
2022-08-26T21:42:40.685Z,9.50
2022-08-26T21:45:10.458Z,11.27
2022-08-26T21:47:40.823Z,11.93
2022-08-26T21:50:10.925Z,10.05
2022-08-26T21:52:40.001Z,15.68
2022-08-26T21:57:41.226Z,10.55
2022-08-26T22:00:14.330Z,12.50
2022-08-26T22:02:43.374Z,10.65
2022-08-26T22:05:12.699Z,8.70
2022-08-26T22:07:44.119Z,8.25
2022-08-26T22:10:17.444Z,10.02
2022-08-26T22:12:47.180Z,11.63
2022-08-26T22:15:16.519Z,11.85
2022-08-26T22:17:45.728Z,8.65
2022-08-26T22:20:16.537Z,14.27
2022-08-26T22:22:46.195Z,11.60
2022-08-26T22:25:17.118Z,10.07
2022-08-26T22:27:46.258Z,11.60
2022-08-26T22:32:45.902Z,10.80
2022-08-26T22:35:29.212Z,9.40
2022-08-26T22:37:59.537Z,10.98
2022-08-26T22:40:30.181Z,10.50
2022-08-26T22:43:00.410Z,8.57
2022-08-26T22:45:31.505Z,8.52
2022-08-26T22:48:01.848Z,12.30
2022-08-26T22:50:31.111Z,13.20
2022-08-26T22:53:00.693Z,14.23
2022-08-26T22:55:31.425Z,10.27
2022-08-26T22:58:00.662Z,9.73
2022-08-26T23:00:36.985Z,11.10
2022-08-26T23:03:06.929Z,12.00
2022-08-26T23:05:36.675Z,9.75
2022-08-26T23:08:06.222Z,8.85
2022-08-26T23:10:37.655Z,9.40
2022-08-26T23:13:08.327Z,12.23
2022-08-26T23:15:38.437Z,12.10
2022-08-26T23:18:08.110Z,8.10
2022-08-26T23:20:37.321Z,9.13
2022-08-26T23:23:06.919Z,8.32
2022-08-26T23:25:37.804Z,9.40
2022-08-26T23:28:07.085Z,9.82
2022-08-26T23:30:36.314Z,9.85
2022-08-26T23:33:05.406Z,9.13
2022-08-26T23:38:02.898Z,9.38
2022-08-26T23:40:34.053Z,12.82
2022-08-26T23:43:06.991Z,11.20
2022-08-26T23:45:36.788Z,10.82
2022-08-26T23:48:07.793Z,9.10
2022-08-26T23:50:54.888Z,12.18
2022-08-26T23:53:24.630Z,10.05
2022-08-26T23:55:54.874Z,11.30
2022-08-26T23:58:25.970Z,9.45
